sensor_id;sensor_type;location;lat;lon;timestamp;P1;durP1;ratioP1;P2;durP2;ratioP2
59189;SDS011;50749;51.636;4.948;2023-08-24T00:01:36;1.92;;;0.88;;
59189;SDS011;50749;51.636;4.948;2023-08-24T00:04:02;1.50;;;0.82;;
59189;SDS011;50749;51.636;4.948;2023-08-24T00:06:28;2.13;;;1.02;;
59189;SDS011;50749;51.636;4.948;2023-08-24T00:08:54;1.73;;;1.05;;
59189;SDS011;50749;51.636;4.948;2023-08-24T00:11:20;2.30;;;1.08;;
59189;SDS011;50749;51.636;4.948;2023-08-24T00:13:45;3.03;;;1.40;;
59189;SDS011;50749;51.636;4.948;2023-08-24T00:16:15;2.80;;;1.23;;
59189;SDS011;50749;51.636;4.948;2023-08-24T00:18:41;3.70;;;1.25;;
59189;SDS011;50749;51.636;4.948;2023-08-24T00:21:08;2.22;;;1.30;;
59189;SDS011;50749;51.636;4.948;2023-08-24T00:23:33;2.22;;;1.30;;
59189;SDS011;50749;51.636;4.948;2023-08-24T00:25:59;3.08;;;1.30;;
59189;SDS011;50749;51.636;4.948;2023-08-24T00:28:25;3.95;;;1.23;;
59189;SDS011;50749;51.636;4.948;2023-08-24T00:30:51;2.45;;;1.10;;
59189;SDS011;50749;51.636;4.948;2023-08-24T00:33:20;2.38;;;1.10;;
59189;SDS011;50749;51.636;4.948;2023-08-24T00:35:46;2.67;;;1.38;;
59189;SDS011;50749;51.636;4.948;2023-08-24T00:38:11;1.48;;;0.98;;
59189;SDS011;50749;51.636;4.948;2023-08-24T00:40:37;2.20;;;1.13;;
59189;SDS011;50749;51.636;4.948;2023-08-24T00:43:04;1.40;;;0.98;;
59189;SDS011;50749;51.636;4.948;2023-08-24T00:45:30;4.15;;;1.25;;
59189;SDS011;50749;51.636;4.948;2023-08-24T00:47:58;2.88;;;1.38;;
59189;SDS011;50749;51.636;4.948;2023-08-24T00:50:24;2.55;;;1.27;;
59189;SDS011;50749;51.636;4.948;2023-08-24T00:52:50;1.90;;;1.30;;
59189;SDS011;50749;51.636;4.948;2023-08-24T00:55:16;1.90;;;1.13;;
59189;SDS011;50749;51.636;4.948;2023-08-24T00:57:42;3.67;;;1.77;;
59189;SDS011;50749;51.636;4.948;2023-08-24T01:00:08;3.38;;;1.30;;
59189;SDS011;50749;51.636;4.948;2023-08-24T01:02:37;2.50;;;1.20;;
59189;SDS011;50749;51.636;4.948;2023-08-24T01:05:04;2.10;;;1.00;;
59189;SDS011;50749;51.636;4.948;2023-08-24T01:07:30;1.90;;;1.23;;
59189;SDS011;50749;51.636;4.948;2023-08-24T01:09:58;1.80;;;1.20;;
59189;SDS011;50749;51.636;4.948;2023-08-24T01:12:42;1.95;;;1.00;;
59189;SDS011;50749;51.636;4.948;2023-08-24T01:18:08;1.40;;;0.90;;
59189;SDS011;50749;51.636;4.948;2023-08-24T01:20:40;3.25;;;0.98;;
59189;SDS011;50749;51.636;4.948;2023-08-24T01:26:10;4.47;;;1.70;;
59189;SDS011;50749;51.636;4.948;2023-08-24T01:28:39;1.83;;;1.30;;
59189;SDS011;50749;51.636;4.948;2023-08-24T01:31:07;3.13;;;1.30;;
59189;SDS011;50749;51.636;4.948;2023-08-24T01:33:33;3.33;;;1.40;;
59189;SDS011;50749;51.636;4.948;2023-08-24T01:35:59;2.78;;;1.20;;
59189;SDS011;50749;51.636;4.948;2023-08-24T01:38:25;2.63;;;1.50;;
59189;SDS011;50749;51.636;4.948;2023-08-24T01:43:33;3.20;;;1.70;;
59189;SDS011;50749;51.636;4.948;2023-08-24T01:46:04;2.25;;;1.55;;
59189;SDS011;50749;51.636;4.948;2023-08-24T01:48:32;2.55;;;1.40;;
59189;SDS011;50749;51.636;4.948;2023-08-24T01:50:59;3.28;;;1.42;;
59189;SDS011;50749;51.636;4.948;2023-08-24T01:53:27;1.67;;;1.10;;
59189;SDS011;50749;51.636;4.948;2023-08-24T01:55:54;2.33;;;1.27;;
59189;SDS011;50749;51.636;4.948;2023-08-24T01:58:20;4.20;;;1.50;;
59189;SDS011;50749;51.636;4.948;2023-08-24T02:00:46;5.18;;;1.58;;
59189;SDS011;50749;51.636;4.948;2023-08-24T02:03:11;2.47;;;1.20;;
59189;SDS011;50749;51.636;4.948;2023-08-24T02:05:38;2.83;;;0.98;;
59189;SDS011;50749;51.636;4.948;2023-08-24T02:08:03;1.88;;;1.10;;
59189;SDS011;50749;51.636;4.948;2023-08-24T02:10:29;2.10;;;1.20;;
59189;SDS011;50749;51.636;4.948;2023-08-24T02:12:55;2.28;;;1.05;;
59189;SDS011;50749;51.636;4.948;2023-08-24T02:15:21;3.47;;;2.58;;
59189;SDS011;50749;51.636;4.948;2023-08-24T02:17:47;2.08;;;1.17;;
59189;SDS011;50749;51.636;4.948;2023-08-24T02:20:13;2.63;;;1.42;;
59189;SDS011;50749;51.636;4.948;2023-08-24T02:22:39;2.65;;;1.67;;
59189;SDS011;50749;51.636;4.948;2023-08-24T02:25:05;2.17;;;1.27;;
59189;SDS011;50749;51.636;4.948;2023-08-24T02:27:31;2.35;;;1.50;;
59189;SDS011;50749;51.636;4.948;2023-08-24T02:29:58;2.85;;;1.40;;
59189;SDS011;50749;51.636;4.948;2023-08-24T02:32:23;3.58;;;1.45;;
59189;SDS011;50749;51.636;4.948;2023-08-24T02:34:49;2.45;;;1.60;;
59189;SDS011;50749;51.636;4.948;2023-08-24T02:37:15;4.18;;;1.90;;
59189;SDS011;50749;51.636;4.948;2023-08-24T02:39:41;2.13;;;1.48;;
59189;SDS011;50749;51.636;4.948;2023-08-24T02:42:06;3.78;;;1.65;;
59189;SDS011;50749;51.636;4.948;2023-08-24T02:44:32;2.80;;;1.73;;
59189;SDS011;50749;51.636;4.948;2023-08-24T02:46:58;3.58;;;1.80;;
59189;SDS011;50749;51.636;4.948;2023-08-24T02:49:24;6.43;;;1.80;;
59189;SDS011;50749;51.636;4.948;2023-08-24T02:51:49;5.50;;;2.20;;
59189;SDS011;50749;51.636;4.948;2023-08-24T02:54:15;8.68;;;2.38;;
59189;SDS011;50749;51.636;4.948;2023-08-24T02:56:41;3.45;;;2.03;;
59189;SDS011;50749;51.636;4.948;2023-08-24T02:59:07;3.30;;;1.92;;
59189;SDS011;50749;51.636;4.948;2023-08-24T03:01:32;4.00;;;1.80;;
59189;SDS011;50749;51.636;4.948;2023-08-24T03:03:58;3.30;;;1.73;;
59189;SDS011;50749;51.636;4.948;2023-08-24T03:06:24;2.90;;;2.20;;
59189;SDS011;50749;51.636;4.948;2023-08-24T03:08:50;3.92;;;2.30;;
59189;SDS011;50749;51.636;4.948;2023-08-24T03:11:16;6.55;;;2.20;;
59189;SDS011;50749;51.636;4.948;2023-08-24T03:13:41;5.63;;;2.13;;
59189;SDS011;50749;51.636;4.948;2023-08-24T03:16:08;5.25;;;1.88;;
59189;SDS011;50749;51.636;4.948;2023-08-24T03:18:34;5.57;;;1.77;;
59189;SDS011;50749;51.636;4.948;2023-08-24T03:21:00;4.60;;;2.45;;
59189;SDS011;50749;51.636;4.948;2023-08-24T03:23:26;6.50;;;2.22;;
59189;SDS011;50749;51.636;4.948;2023-08-24T03:25:52;4.13;;;1.75;;
59189;SDS011;50749;51.636;4.948;2023-08-24T03:28:18;2.40;;;1.50;;
59189;SDS011;50749;51.636;4.948;2023-08-24T03:30:48;4.03;;;1.80;;
59189;SDS011;50749;51.636;4.948;2023-08-24T03:33:15;4.68;;;1.80;;
59189;SDS011;50749;51.636;4.948;2023-08-24T03:35:41;3.95;;;1.48;;
59189;SDS011;50749;51.636;4.948;2023-08-24T03:38:07;2.67;;;1.38;;
59189;SDS011;50749;51.636;4.948;2023-08-24T03:40:33;6.70;;;3.72;;
59189;SDS011;50749;51.636;4.948;2023-08-24T03:43:00;3.90;;;1.70;;
59189;SDS011;50749;51.636;4.948;2023-08-24T03:45:26;3.28;;;1.48;;
59189;SDS011;50749;51.636;4.948;2023-08-24T03:47:52;3.60;;;1.70;;
59189;SDS011;50749;51.636;4.948;2023-08-24T03:50:18;3.45;;;1.90;;
59189;SDS011;50749;51.636;4.948;2023-08-24T03:52:44;3.83;;;1.70;;
59189;SDS011;50749;51.636;4.948;2023-08-24T03:55:09;4.40;;;2.10;;
59189;SDS011;50749;51.636;4.948;2023-08-24T03:57:35;4.35;;;2.30;;
59189;SDS011;50749;51.636;4.948;2023-08-24T04:00:03;3.95;;;2.25;;
59189;SDS011;50749;51.636;4.948;2023-08-24T04:02:33;5.30;;;2.05;;
59189;SDS011;50749;51.636;4.948;2023-08-24T04:04:58;6.78;;;1.83;;
59189;SDS011;50749;51.636;4.948;2023-08-24T04:07:24;3.47;;;1.73;;
59189;SDS011;50749;51.636;4.948;2023-08-24T04:09:50;5.20;;;1.90;;
59189;SDS011;50749;51.636;4.948;2023-08-24T04:12:16;5.13;;;1.25;;
59189;SDS011;50749;51.636;4.948;2023-08-24T04:14:41;4.78;;;1.67;;
59189;SDS011;50749;51.636;4.948;2023-08-24T04:17:07;4.63;;;1.83;;
59189;SDS011;50749;51.636;4.948;2023-08-24T04:19:33;4.60;;;2.30;;
59189;SDS011;50749;51.636;4.948;2023-08-24T04:21:59;4.03;;;2.58;;
59189;SDS011;50749;51.636;4.948;2023-08-24T04:24:24;5.82;;;2.47;;
59189;SDS011;50749;51.636;4.948;2023-08-24T04:26:51;3.63;;;2.35;;
59189;SDS011;50749;51.636;4.948;2023-08-24T04:29:17;6.28;;;2.60;;
59189;SDS011;50749;51.636;4.948;2023-08-24T04:31:43;4.82;;;2.88;;
59189;SDS011;50749;51.636;4.948;2023-08-24T04:34:08;3.58;;;2.28;;
59189;SDS011;50749;51.636;4.948;2023-08-24T04:36:34;4.22;;;1.73;;
59189;SDS011;50749;51.636;4.948;2023-08-24T04:39:00;2.72;;;1.60;;
59189;SDS011;50749;51.636;4.948;2023-08-24T04:41:27;4.53;;;1.83;;
59189;SDS011;50749;51.636;4.948;2023-08-24T04:43:52;5.80;;;2.42;;
59189;SDS011;50749;51.636;4.948;2023-08-24T04:46:18;4.03;;;2.65;;
59189;SDS011;50749;51.636;4.948;2023-08-24T04:48:44;6.75;;;3.38;;
59189;SDS011;50749;51.636;4.948;2023-08-24T04:51:10;7.95;;;3.28;;
59189;SDS011;50749;51.636;4.948;2023-08-24T04:53:35;4.35;;;2.90;;
59189;SDS011;50749;51.636;4.948;2023-08-24T04:56:01;8.63;;;4.10;;
59189;SDS011;50749;51.636;4.948;2023-08-24T04:58:27;6.32;;;4.05;;
59189;SDS011;50749;51.636;4.948;2023-08-24T05:00:53;6.05;;;3.83;;
59189;SDS011;50749;51.636;4.948;2023-08-24T05:03:20;5.47;;;3.92;;
59189;SDS011;50749;51.636;4.948;2023-08-24T05:05:46;7.20;;;4.72;;
59189;SDS011;50749;51.636;4.948;2023-08-24T05:08:12;7.80;;;4.30;;
59189;SDS011;50749;51.636;4.948;2023-08-24T05:10:38;5.68;;;4.05;;
59189;SDS011;50749;51.636;4.948;2023-08-24T05:13:04;6.00;;;4.00;;
59189;SDS011;50749;51.636;4.948;2023-08-24T05:15:30;7.75;;;4.40;;
59189;SDS011;50749;51.636;4.948;2023-08-24T05:17:56;8.27;;;4.90;;
59189;SDS011;50749;51.636;4.948;2023-08-24T05:20:25;6.53;;;5.45;;
59189;SDS011;50749;51.636;4.948;2023-08-24T05:22:51;8.02;;;4.75;;
59189;SDS011;50749;51.636;4.948;2023-08-24T05:25:17;12.20;;;4.80;;
59189;SDS011;50749;51.636;4.948;2023-08-24T05:27:43;10.02;;;5.28;;
59189;SDS011;50749;51.636;4.948;2023-08-24T05:30:09;7.95;;;5.20;;
59189;SDS011;50749;51.636;4.948;2023-08-24T05:32:35;6.60;;;4.65;;
59189;SDS011;50749;51.636;4.948;2023-08-24T05:35:04;8.23;;;4.70;;
59189;SDS011;50749;51.636;4.948;2023-08-24T05:37:31;7.80;;;4.85;;
59189;SDS011;50749;51.636;4.948;2023-08-24T05:39:57;8.10;;;5.13;;
59189;SDS011;50749;51.636;4.948;2023-08-24T05:42:24;9.18;;;5.93;;
59189;SDS011;50749;51.636;4.948;2023-08-24T05:44:50;11.40;;;5.25;;
59189;SDS011;50749;51.636;4.948;2023-08-24T05:47:15;7.38;;;5.45;;
59189;SDS011;50749;51.636;4.948;2023-08-24T05:49:42;9.57;;;5.53;;
59189;SDS011;50749;51.636;4.948;2023-08-24T05:52:07;9.98;;;5.68;;
59189;SDS011;50749;51.636;4.948;2023-08-24T05:54:35;9.68;;;5.55;;
59189;SDS011;50749;51.636;4.948;2023-08-24T05:57:02;12.57;;;6.07;;
59189;SDS011;50749;51.636;4.948;2023-08-24T05:59:29;9.55;;;6.75;;
59189;SDS011;50749;51.636;4.948;2023-08-24T06:01:55;9.57;;;5.80;;
59189;SDS011;50749;51.636;4.948;2023-08-24T06:04:21;12.60;;;6.53;;
59189;SDS011;50749;51.636;4.948;2023-08-24T06:06:47;7.97;;;6.30;;
59189;SDS011;50749;51.636;4.948;2023-08-24T06:09:13;12.68;;;7.05;;
59189;SDS011;50749;51.636;4.948;2023-08-24T06:11:40;9.00;;;5.93;;
59189;SDS011;50749;51.636;4.948;2023-08-24T06:14:06;10.32;;;6.30;;
59189;SDS011;50749;51.636;4.948;2023-08-24T06:16:32;10.60;;;6.95;;
59189;SDS011;50749;51.636;4.948;2023-08-24T06:18:58;11.98;;;6.72;;
59189;SDS011;50749;51.636;4.948;2023-08-24T06:21:24;9.23;;;6.60;;
59189;SDS011;50749;51.636;4.948;2023-08-24T06:23:50;14.23;;;7.55;;
59189;SDS011;50749;51.636;4.948;2023-08-24T06:26:16;13.10;;;8.30;;
59189;SDS011;50749;51.636;4.948;2023-08-24T06:28:43;12.23;;;7.72;;
59189;SDS011;50749;51.636;4.948;2023-08-24T06:31:09;11.25;;;7.75;;
59189;SDS011;50749;51.636;4.948;2023-08-24T06:33:35;15.00;;;7.30;;
59189;SDS011;50749;51.636;4.948;2023-08-24T06:36:02;12.73;;;7.78;;
59189;SDS011;50749;51.636;4.948;2023-08-24T06:38:30;12.07;;;7.65;;
59189;SDS011;50749;51.636;4.948;2023-08-24T06:40:59;15.10;;;7.72;;
59189;SDS011;50749;51.636;4.948;2023-08-24T06:43:26;11.95;;;8.45;;
59189;SDS011;50749;51.636;4.948;2023-08-24T06:45:54;13.30;;;8.13;;
59189;SDS011;50749;51.636;4.948;2023-08-24T06:48:20;18.60;;;8.15;;
59189;SDS011;50749;51.636;4.948;2023-08-24T06:50:46;11.02;;;7.72;;
59189;SDS011;50749;51.636;4.948;2023-08-24T06:53:12;12.02;;;7.75;;
59189;SDS011;50749;51.636;4.948;2023-08-24T06:55:39;15.90;;;8.52;;
59189;SDS011;50749;51.636;4.948;2023-08-24T06:58:06;13.38;;;8.82;;
59189;SDS011;50749;51.636;4.948;2023-08-24T07:00:31;14.93;;;8.07;;
59189;SDS011;50749;51.636;4.948;2023-08-24T07:02:59;14.73;;;8.48;;
59189;SDS011;50749;51.636;4.948;2023-08-24T07:05:25;9.63;;;7.93;;
59189;SDS011;50749;51.636;4.948;2023-08-24T07:07:51;13.75;;;8.02;;
59189;SDS011;50749;51.636;4.948;2023-08-24T07:10:17;17.23;;;8.50;;
59189;SDS011;50749;51.636;4.948;2023-08-24T07:12:43;14.90;;;8.52;;
59189;SDS011;50749;51.636;4.948;2023-08-24T07:15:11;11.68;;;8.05;;
59189;SDS011;50749;51.636;4.948;2023-08-24T07:17:37;13.00;;;7.70;;
59189;SDS011;50749;51.636;4.948;2023-08-24T07:20:03;13.60;;;8.02;;
59189;SDS011;50749;51.636;4.948;2023-08-24T07:22:37;13.98;;;7.72;;
59189;SDS011;50749;51.636;4.948;2023-08-24T07:25:03;12.15;;;8.30;;
59189;SDS011;50749;51.636;4.948;2023-08-24T07:27:34;15.73;;;8.55;;
59189;SDS011;50749;51.636;4.948;2023-08-24T07:30:00;14.35;;;7.90;;
59189;SDS011;50749;51.636;4.948;2023-08-24T07:32:29;11.00;;;7.60;;
59189;SDS011;50749;51.636;4.948;2023-08-24T07:34:55;11.40;;;7.55;;
59189;SDS011;50749;51.636;4.948;2023-08-24T07:37:22;12.15;;;8.00;;
59189;SDS011;50749;51.636;4.948;2023-08-24T07:39:48;10.25;;;7.78;;
59189;SDS011;50749;51.636;4.948;2023-08-24T07:42:14;12.43;;;7.28;;
59189;SDS011;50749;51.636;4.948;2023-08-24T07:44:39;14.90;;;8.40;;
59189;SDS011;50749;51.636;4.948;2023-08-24T07:47:05;12.85;;;7.68;;
59189;SDS011;50749;51.636;4.948;2023-08-24T07:49:31;11.73;;;7.00;;
59189;SDS011;50749;51.636;4.948;2023-08-24T07:51:57;13.30;;;7.28;;
59189;SDS011;50749;51.636;4.948;2023-08-24T07:54:23;11.07;;;7.70;;
59189;SDS011;50749;51.636;4.948;2023-08-24T07:56:50;12.80;;;7.30;;
59189;SDS011;50749;51.636;4.948;2023-08-24T07:59:16;10.88;;;6.65;;
59189;SDS011;50749;51.636;4.948;2023-08-24T08:01:42;9.88;;;6.30;;
59189;SDS011;50749;51.636;4.948;2023-08-24T08:04:07;10.95;;;7.10;;
59189;SDS011;50749;51.636;4.948;2023-08-24T08:06:33;11.23;;;7.18;;
59189;SDS011;50749;51.636;4.948;2023-08-24T08:08:59;12.32;;;6.72;;
59189;SDS011;50749;51.636;4.948;2023-08-24T08:11:26;11.50;;;6.40;;
59189;SDS011;50749;51.636;4.948;2023-08-24T08:13:51;16.40;;;7.28;;
59189;SDS011;50749;51.636;4.948;2023-08-24T08:16:17;11.05;;;7.20;;
59189;SDS011;50749;51.636;4.948;2023-08-24T08:18:43;14.15;;;7.60;;
59189;SDS011;50749;51.636;4.948;2023-08-24T08:21:10;12.68;;;7.43;;
59189;SDS011;50749;51.636;4.948;2023-08-24T08:23:39;8.73;;;5.85;;
59189;SDS011;50749;51.636;4.948;2023-08-24T08:26:07;9.55;;;6.35;;
59189;SDS011;50749;51.636;4.948;2023-08-24T08:28:35;12.07;;;7.47;;
59189;SDS011;50749;51.636;4.948;2023-08-24T08:31:01;9.82;;;6.40;;
59189;SDS011;50749;51.636;4.948;2023-08-24T08:33:27;11.25;;;5.60;;
59189;SDS011;50749;51.636;4.948;2023-08-24T08:35:53;8.07;;;5.43;;
59189;SDS011;50749;51.636;4.948;2023-08-24T08:38:19;7.43;;;5.22;;
59189;SDS011;50749;51.636;4.948;2023-08-24T08:40:47;9.88;;;5.75;;
59189;SDS011;50749;51.636;4.948;2023-08-24T08:43:15;10.90;;;6.82;;
59189;SDS011;50749;51.636;4.948;2023-08-24T08:45:41;10.63;;;5.38;;
59189;SDS011;50749;51.636;4.948;2023-08-24T08:48:07;8.65;;;5.68;;
59189;SDS011;50749;51.636;4.948;2023-08-24T08:50:34;9.88;;;5.28;;
59189;SDS011;50749;51.636;4.948;2023-08-24T08:53:00;9.82;;;5.20;;
59189;SDS011;50749;51.636;4.948;2023-08-24T08:55:27;10.65;;;5.75;;
59189;SDS011;50749;51.636;4.948;2023-08-24T08:57:55;11.45;;;5.47;;
59189;SDS011;50749;51.636;4.948;2023-08-24T09:00:24;8.82;;;5.45;;
59189;SDS011;50749;51.636;4.948;2023-08-24T09:02:51;16.30;;;4.82;;
59189;SDS011;50749;51.636;4.948;2023-08-24T09:05:20;11.93;;;6.20;;
59189;SDS011;50749;51.636;4.948;2023-08-24T09:07:46;9.15;;;6.47;;
59189;SDS011;50749;51.636;4.948;2023-08-24T09:10:13;7.60;;;5.60;;
59189;SDS011;50749;51.636;4.948;2023-08-24T09:12:39;11.93;;;5.50;;
59189;SDS011;50749;51.636;4.948;2023-08-24T09:15:05;14.75;;;5.90;;
59189;SDS011;50749;51.636;4.948;2023-08-24T09:17:32;8.48;;;5.72;;
59189;SDS011;50749;51.636;4.948;2023-08-24T09:19:59;9.57;;;5.20;;
59189;SDS011;50749;51.636;4.948;2023-08-24T09:22:25;12.88;;;5.22;;
59189;SDS011;50749;51.636;4.948;2023-08-24T09:24:52;9.05;;;4.25;;
59189;SDS011;50749;51.636;4.948;2023-08-24T09:27:20;5.47;;;3.97;;
59189;SDS011;50749;51.636;4.948;2023-08-24T09:29:48;9.48;;;4.43;;
59189;SDS011;50749;51.636;4.948;2023-08-24T09:32:38;8.07;;;4.65;;
59189;SDS011;50749;51.636;4.948;2023-08-24T09:35:07;5.18;;;3.35;;
59189;SDS011;50749;51.636;4.948;2023-08-24T09:37:34;7.97;;;4.53;;
59189;SDS011;50749;51.636;4.948;2023-08-24T09:40:01;8.50;;;4.80;;
59189;SDS011;50749;51.636;4.948;2023-08-24T09:42:39;7.28;;;4.30;;
59189;SDS011;50749;51.636;4.948;2023-08-24T09:45:07;9.57;;;4.72;;
59189;SDS011;50749;51.636;4.948;2023-08-24T09:47:39;9.13;;;3.90;;
59189;SDS011;50749;51.636;4.948;2023-08-24T09:50:10;9.75;;;5.13;;
59189;SDS011;50749;51.636;4.948;2023-08-24T09:52:35;7.22;;;4.78;;
59189;SDS011;50749;51.636;4.948;2023-08-24T09:55:06;11.48;;;5.10;;
59189;SDS011;50749;51.636;4.948;2023-08-24T09:57:38;10.45;;;5.25;;
59189;SDS011;50749;51.636;4.948;2023-08-24T10:00:08;10.40;;;4.22;;
59189;SDS011;50749;51.636;4.948;2023-08-24T10:02:48;8.57;;;5.57;;
59189;SDS011;50749;51.636;4.948;2023-08-24T10:05:25;7.63;;;4.90;;
59189;SDS011;50749;51.636;4.948;2023-08-24T10:07:54;8.48;;;4.25;;
59189;SDS011;50749;51.636;4.948;2023-08-24T10:10:21;9.10;;;4.18;;
59189;SDS011;50749;51.636;4.948;2023-08-24T10:12:51;5.68;;;4.30;;
59189;SDS011;50749;51.636;4.948;2023-08-24T10:15:30;8.35;;;5.03;;
59189;SDS011;50749;51.636;4.948;2023-08-24T10:17:57;9.45;;;3.63;;
59189;SDS011;50749;51.636;4.948;2023-08-24T10:20:26;13.88;;;4.70;;
59189;SDS011;50749;51.636;4.948;2023-08-24T10:22:52;6.20;;;3.75;;
59189;SDS011;50749;51.636;4.948;2023-08-24T10:25:18;6.78;;;3.47;;
59189;SDS011;50749;51.636;4.948;2023-08-24T10:27:45;9.02;;;3.80;;
59189;SDS011;50749;51.636;4.948;2023-08-24T10:30:13;8.10;;;4.47;;
59189;SDS011;50749;51.636;4.948;2023-08-24T10:32:40;18.25;;;4.15;;
59189;SDS011;50749;51.636;4.948;2023-08-24T10:35:08;9.40;;;4.40;;
59189;SDS011;50749;51.636;4.948;2023-08-24T10:37:34;7.60;;;4.18;;
59189;SDS011;50749;51.636;4.948;2023-08-24T10:40:00;9.95;;;4.75;;
59189;SDS011;50749;51.636;4.948;2023-08-24T10:42:26;8.85;;;3.90;;
59189;SDS011;50749;51.636;4.948;2023-08-24T10:44:52;7.70;;;4.57;;
59189;SDS011;50749;51.636;4.948;2023-08-24T10:47:19;8.05;;;4.45;;
59189;SDS011;50749;51.636;4.948;2023-08-24T10:52:25;12.38;;;4.00;;
59189;SDS011;50749;51.636;4.948;2023-08-24T10:54:55;8.20;;;4.03;;
59189;SDS011;50749;51.636;4.948;2023-08-24T10:57:24;10.40;;;5.00;;
59189;SDS011;50749;51.636;4.948;2023-08-24T11:05:16;8.00;;;3.15;;
59189;SDS011;50749;51.636;4.948;2023-08-24T11:07:56;8.25;;;4.45;;
59189;SDS011;50749;51.636;4.948;2023-08-24T11:10:46;5.55;;;3.28;;
59189;SDS011;50749;51.636;4.948;2023-08-24T11:15:43;7.78;;;3.60;;
59189;SDS011;50749;51.636;4.948;2023-08-24T11:20:47;12.38;;;3.88;;
59189;SDS011;50749;51.636;4.948;2023-08-24T11:23:18;7.70;;;5.47;;
59189;SDS011;50749;51.636;4.948;2023-08-24T11:25:45;6.30;;;4.10;;
59189;SDS011;50749;51.636;4.948;2023-08-24T11:28:15;10.13;;;4.10;;
59189;SDS011;50749;51.636;4.948;2023-08-24T11:30:43;12.07;;;4.35;;
59189;SDS011;50749;51.636;4.948;2023-08-24T11:33:09;7.40;;;4.20;;
59189;SDS011;50749;51.636;4.948;2023-08-24T11:35:38;13.23;;;6.50;;
59189;SDS011;50749;51.636;4.948;2023-08-24T11:38:06;6.70;;;4.20;;
59189;SDS011;50749;51.636;4.948;2023-08-24T11:40:32;6.50;;;3.90;;
59189;SDS011;50749;51.636;4.948;2023-08-24T11:42:58;8.20;;;4.22;;
59189;SDS011;50749;51.636;4.948;2023-08-24T11:45:28;7.00;;;4.03;;
59189;SDS011;50749;51.636;4.948;2023-08-24T11:47:55;5.38;;;3.60;;
59189;SDS011;50749;51.636;4.948;2023-08-24T11:50:23;11.23;;;3.28;;
59189;SDS011;50749;51.636;4.948;2023-08-24T11:52:49;4.85;;;3.47;;
59189;SDS011;50749;51.636;4.948;2023-08-24T11:55:15;5.38;;;2.75;;
59189;SDS011;50749;51.636;4.948;2023-08-24T11:57:41;5.18;;;3.50;;
59189;SDS011;50749;51.636;4.948;2023-08-24T12:00:07;5.53;;;3.40;;
59189;SDS011;50749;51.636;4.948;2023-08-24T12:02:39;5.25;;;2.72;;
59189;SDS011;50749;51.636;4.948;2023-08-24T12:05:06;6.18;;;2.65;;
59189;SDS011;50749;51.636;4.948;2023-08-24T12:07:33;5.57;;;3.28;;
59189;SDS011;50749;51.636;4.948;2023-08-24T12:10:00;6.10;;;3.17;;
59189;SDS011;50749;51.636;4.948;2023-08-24T12:12:27;5.40;;;2.90;;
59189;SDS011;50749;51.636;4.948;2023-08-24T12:14:54;5.35;;;3.05;;
59189;SDS011;50749;51.636;4.948;2023-08-24T12:17:22;5.40;;;2.90;;
59189;SDS011;50749;51.636;4.948;2023-08-24T12:19:58;4.22;;;3.03;;
59189;SDS011;50749;51.636;4.948;2023-08-24T12:22:25;6.85;;;3.30;;
59189;SDS011;50749;51.636;4.948;2023-08-24T12:24:52;8.60;;;3.03;;
59189;SDS011;50749;51.636;4.948;2023-08-24T12:27:26;6.32;;;3.22;;
59189;SDS011;50749;51.636;4.948;2023-08-24T12:29:52;5.47;;;3.10;;
59189;SDS011;50749;51.636;4.948;2023-08-24T12:32:20;5.20;;;3.22;;
59189;SDS011;50749;51.636;4.948;2023-08-24T12:34:48;4.95;;;3.13;;
59189;SDS011;50749;51.636;4.948;2023-08-24T12:37:17;5.72;;;2.95;;
59189;SDS011;50749;51.636;4.948;2023-08-24T12:39:43;5.07;;;2.78;;
59189;SDS011;50749;51.636;4.948;2023-08-24T12:42:09;5.53;;;3.20;;
59189;SDS011;50749;51.636;4.948;2023-08-24T12:44:34;5.10;;;3.05;;
59189;SDS011;50749;51.636;4.948;2023-08-24T12:47:02;5.75;;;2.88;;
59189;SDS011;50749;51.636;4.948;2023-08-24T12:49:29;6.05;;;2.83;;
59189;SDS011;50749;51.636;4.948;2023-08-24T12:51:54;6.80;;;2.85;;
59189;SDS011;50749;51.636;4.948;2023-08-24T12:54:20;7.13;;;3.25;;
59189;SDS011;50749;51.636;4.948;2023-08-24T12:56:47;8.95;;;3.22;;
59189;SDS011;50749;51.636;4.948;2023-08-24T12:59:13;5.47;;;2.95;;
59189;SDS011;50749;51.636;4.948;2023-08-24T13:01:38;3.50;;;2.75;;
59189;SDS011;50749;51.636;4.948;2023-08-24T13:04:04;6.97;;;3.15;;
59189;SDS011;50749;51.636;4.948;2023-08-24T13:06:30;8.57;;;3.42;;
59189;SDS011;50749;51.636;4.948;2023-08-24T13:08:56;3.42;;;2.78;;
59189;SDS011;50749;51.636;4.948;2023-08-24T13:11:22;4.65;;;2.92;;
59189;SDS011;50749;51.636;4.948;2023-08-24T13:13:49;5.30;;;3.38;;
59189;SDS011;50749;51.636;4.948;2023-08-24T13:16:14;5.30;;;3.20;;
59189;SDS011;50749;51.636;4.948;2023-08-24T13:18:41;5.13;;;3.70;;
59189;SDS011;50749;51.636;4.948;2023-08-24T13:21:07;7.90;;;5.05;;
59189;SDS011;50749;51.636;4.948;2023-08-24T13:23:33;7.25;;;3.53;;
59189;SDS011;50749;51.636;4.948;2023-08-24T13:25:59;5.30;;;3.05;;
59189;SDS011;50749;51.636;4.948;2023-08-24T13:28:25;5.70;;;3.20;;
59189;SDS011;50749;51.636;4.948;2023-08-24T13:30:51;12.40;;;3.55;;
59189;SDS011;50749;51.636;4.948;2023-08-24T13:33:17;7.93;;;3.22;;
59189;SDS011;50749;51.636;4.948;2023-08-24T13:35:44;7.22;;;2.83;;
59189;SDS011;50749;51.636;4.948;2023-08-24T13:38:11;6.57;;;2.83;;
59189;SDS011;50749;51.636;4.948;2023-08-24T13:40:36;6.32;;;2.38;;
59189;SDS011;50749;51.636;4.948;2023-08-24T13:43:02;5.38;;;2.60;;
59189;SDS011;50749;51.636;4.948;2023-08-24T13:45:29;5.47;;;2.65;;
59189;SDS011;50749;51.636;4.948;2023-08-24T13:47:57;5.38;;;2.47;;
59189;SDS011;50749;51.636;4.948;2023-08-24T13:50:22;4.38;;;2.55;;
59189;SDS011;50749;51.636;4.948;2023-08-24T13:52:49;7.70;;;3.33;;
59189;SDS011;50749;51.636;4.948;2023-08-24T13:55:14;6.18;;;2.60;;
59189;SDS011;50749;51.636;4.948;2023-08-24T13:57:42;7.07;;;3.40;;
59189;SDS011;50749;51.636;4.948;2023-08-24T14:00:08;6.82;;;2.08;;
59189;SDS011;50749;51.636;4.948;2023-08-24T14:02:34;4.05;;;2.22;;
59189;SDS011;50749;51.636;4.948;2023-08-24T14:05:00;7.60;;;2.70;;
59189;SDS011;50749;51.636;4.948;2023-08-24T14:07:26;9.18;;;2.50;;
59189;SDS011;50749;51.636;4.948;2023-08-24T14:09:52;4.72;;;2.63;;
59189;SDS011;50749;51.636;4.948;2023-08-24T14:12:18;5.13;;;3.17;;
59189;SDS011;50749;51.636;4.948;2023-08-24T14:14:43;4.78;;;2.58;;
59189;SDS011;50749;51.636;4.948;2023-08-24T14:17:09;6.43;;;3.55;;
59189;SDS011;50749;51.636;4.948;2023-08-24T14:19:35;4.38;;;2.90;;
59189;SDS011;50749;51.636;4.948;2023-08-24T14:22:01;9.23;;;2.63;;
59189;SDS011;50749;51.636;4.948;2023-08-24T14:24:27;5.85;;;2.55;;
59189;SDS011;50749;51.636;4.948;2023-08-24T14:26:53;7.82;;;2.45;;
59189;SDS011;50749;51.636;4.948;2023-08-24T14:29:18;6.90;;;2.38;;
59189;SDS011;50749;51.636;4.948;2023-08-24T14:31:44;8.50;;;3.05;;
59189;SDS011;50749;51.636;4.948;2023-08-24T14:34:10;6.80;;;2.53;;
59189;SDS011;50749;51.636;4.948;2023-08-24T14:36:36;4.18;;;2.25;;
59189;SDS011;50749;51.636;4.948;2023-08-24T14:39:01;6.10;;;2.30;;
59189;SDS011;50749;51.636;4.948;2023-08-24T14:41:27;4.95;;;2.80;;
59189;SDS011;50749;51.636;4.948;2023-08-24T14:43:53;6.45;;;2.15;;
59189;SDS011;50749;51.636;4.948;2023-08-24T14:46:19;7.05;;;2.22;;
59189;SDS011;50749;51.636;4.948;2023-08-24T14:48:45;4.88;;;2.40;;
59189;SDS011;50749;51.636;4.948;2023-08-24T14:51:11;4.85;;;2.22;;
59189;SDS011;50749;51.636;4.948;2023-08-24T14:53:37;8.00;;;2.13;;
59189;SDS011;50749;51.636;4.948;2023-08-24T14:56:04;3.88;;;2.03;;
59189;SDS011;50749;51.636;4.948;2023-08-24T14:58:29;5.07;;;1.92;;
59189;SDS011;50749;51.636;4.948;2023-08-24T15:00:56;4.07;;;2.20;;
59189;SDS011;50749;51.636;4.948;2023-08-24T15:03:22;4.43;;;2.20;;
59189;SDS011;50749;51.636;4.948;2023-08-24T15:05:56;5.82;;;2.10;;